Time;durP1;ratioP1;P1;durP2;ratioP2;P2;SDS_P1;SDS_P2;PMS_P1;PMS_P2;Temp;Humidity;BMP_temperature;BMP_pressure;BME280_temperature;BME280_humidity;BME280_pressure;Samples;Min_cycle;Max_cycle;Signal;HPM_P1;HPM_P2
2021/01/11 00:03:09;;;;;;;17.58;11.13;;;;;;;0.10;100.00;101589.53;10253979;29;20047;-74
2021/01/11 00:08:10;;;;;;;17.48;12.27;;;;;;;0.18;100.00;101596.56;10238946;29;20428;-74
2021/01/11 00:13:11;;;;;;;17.92;11.63;;;;;;;0.25;100.00;101589.78;10253725;28;20040;-74
2021/01/11 00:18:12;;;;;;;17.25;11.63;;;;;;;0.29;100.00;101582.03;10253281;29;20379;-74
2021/01/11 00:23:14;;;;;;;18.38;11.32;;;;;;;-0.01;100.00;101558.31;10252905;29;20045;-74
2021/01/11 00:28:15;;;;;;;19.52;12.02;;;;;;;-0.29;100.00;101517.34;10252621;28;20043;-74
2021/01/11 00:33:16;;;;;;;18.10;11.32;;;;;;;-0.28;100.00;101538.06;10256312;28;20047;-75
2021/01/11 00:38:17;;;;;;;16.73;12.25;;;;;;;-0.44;100.00;101523.16;10260456;29;20043;-74
2021/01/11 00:43:18;;;;;;;19.88;12.15;;;;;;;-0.41;100.00;101529.25;10260631;29;20051;-74
2021/01/11 00:48:19;;;;;;;19.35;12.82;;;;;;;-0.47;100.00;101536.06;10260915;29;20051;-74
2021/01/11 00:53:21;;;;;;;19.42;13.00;;;;;;;-0.65;100.00;101518.50;10255423;29;20062;-74
2021/01/11 00:58:23;;;;;;;18.33;11.52;;;;;;;-0.73;100.00;101532.16;10242903;29;20043;-74
2021/01/11 01:03:27;;;;;;;20.37;12.30;;;;;;;-0.67;100.00;101543.47;10242632;29;20137;-74
2021/01/11 01:08:28;;;;;;;15.43;11.00;;;;;;;-0.65;100.00;101539.22;10259772;28;20055;-74
2021/01/11 01:13:29;;;;;;;19.20;11.85;;;;;;;-0.61;100.00;101548.78;10260162;29;20051;-74
2021/01/11 01:18:31;;;;;;;16.40;10.98;;;;;;;-0.50;100.00;101559.28;10258814;29;20051;-74
2021/01/11 01:23:33;;;;;;;20.85;12.38;;;;;;;-0.50;100.00;101562.75;10259229;29;20047;-74
2021/01/11 01:28:34;;;;;;;19.40;12.88;;;;;;;-0.38;100.00;101568.13;10257980;28;20055;-74
2021/01/11 01:33:36;;;;;;;17.88;11.68;;;;;;;-0.38;100.00;101568.13;10258332;28;20055;-74
2021/01/11 01:38:37;;;;;;;17.55;11.27;;;;;;;-0.48;100.00;101545.53;10258389;29;20046;-74
2021/01/11 01:43:38;;;;;;;19.70;11.82;;;;;;;-0.51;100.00;101545.50;10260179;28;20492;-74
2021/01/11 01:48:39;;;;;;;19.42;11.63;;;;;;;-0.29;100.00;101571.72;10260029;28;20051;-74
2021/01/11 01:53:44;;;;;;;19.98;11.65;;;;;;;-0.13;100.00;101569.38;10257839;29;20393;-74
2021/01/11 01:58:47;;;;;;;17.20;11.45;;;;;;;-0.20;100.00;101562.38;10257592;29;20526;-74
2021/01/11 02:03:48;;;;;;;17.00;10.88;;;;;;;-0.18;100.00;101567.56;10257860;28;20043;-75
2021/01/11 02:08:55;;;;;;;17.83;11.20;;;;;;;-0.15;100.00;101555.53;10256929;29;20058;-74
2021/01/11 02:14:14;;;;;;;16.95;10.82;;;;;;;-0.09;100.00;101558.22;10257730;29;20047;-74
2021/01/11 02:19:15;;;;;;;17.17;10.90;;;;;;;-0.01;100.00;101566.09;10257201;29;20047;-74
2021/01/11 02:24:25;;;;;;;18.58;10.77;;;;;;;-0.02;100.00;101548.81;10256466;29;20035;-74
2021/01/11 02:29:29;;;;;;;15.95;11.18;;;;;;;0.03;100.00;101541.97;10258125;28;20047;-74
2021/01/11 02:34:32;;;;;;;18.63;11.53;;;;;;;-0.01;100.00;101543.66;10262728;28;20063;-74
2021/01/11 02:39:33;;;;;;;19.45;10.57;;;;;;;0.05;100.00;101548.03;10256646;29;20053;-74
2021/01/11 02:44:35;;;;;;;17.23;10.20;;;;;;;-0.01;100.00;101538.47;10239995;29;20048;-74
2021/01/11 02:49:44;;;;;;;15.90;10.48;;;;;;;0.09;100.00;101551.53;10255301;29;20051;-74
2021/01/11 02:54:54;;;;;;;15.38;10.27;;;;;;;-0.01;100.00;101537.59;10254832;28;20054;-74
2021/01/11 03:00:03;;;;;;;14.95;11.18;;;;;;;-0.08;100.00;101534.03;10246977;29;20046;-74
2021/01/11 03:05:06;;;;;;;15.55;10.60;;;;;;;-0.21;100.00;101526.09;10251453;28;20050;-74
2021/01/11 03:10:07;;;;;;;17.30;11.38;;;;;;;-0.25;100.00;101513.97;10295032;28;20051;-74
2021/01/11 03:15:09;;;;;;;19.38;12.02;;;;;;;-0.12;100.00;101524.50;10271086;28;20109;-74
2021/01/11 03:20:11;;;;;;;16.38;10.73;;;;;;;-0.02;100.00;101525.50;10237777;29;20047;-74
2021/01/11 03:25:14;;;;;;;17.17;10.98;;;;;;;-0.10;100.00;101494.31;10254768;29;20048;-74
2021/01/11 03:30:15;;;;;;;19.88;12.75;;;;;;;0.08;100.00;101498.00;10281215;28;20090;-74
2021/01/11 03:35:16;;;;;;;22.67;15.30;;;;;;;0.16;100.00;101498.97;10257236;28;20130;-74
2021/01/11 03:40:17;;;;;;;24.30;16.40;;;;;;;0.17;100.00;101485.16;10237557;29;20039;-74
2021/01/11 03:45:18;;;;;;;27.30;17.58;;;;;;;0.12;100.00;101473.84;10254237;29;20043;-74
2021/01/11 03:50:19;;;;;;;23.70;15.57;;;;;;;0.05;100.00;101462.56;10254026;29;20102;-74
2021/01/11 03:55:21;;;;;;;22.90;15.20;;;;;;;-0.08;100.00;101474.47;10254184;28;20054;-74
2021/01/11 04:00:22;;;;;;;26.67;15.20;;;;;;;-0.10;100.00;101490.88;10253698;29;20047;-74
2021/01/11 04:05:25;;;;;;;22.75;14.60;;;;;;;-0.09;100.00;101483.13;10254299;28;20043;-74
2021/01/11 04:10:26;;;;;;;22.73;14.63;;;;;;;-0.04;100.00;101488.34;10267811;28;20043;-74
2021/01/11 04:15:27;;;;;;;23.80;14.43;;;;;;;-0.03;100.00;101490.97;10266905;28;20043;-74
2021/01/11 04:20:29;;;;;;;23.60;15.50;;;;;;;0.02;100.00;101478.06;10249134;28;20043;-74
2021/01/11 04:25:31;;;;;;;32.25;18.65;;;;;;;0.11;100.00;101485.94;10265576;28;20046;-74
2021/01/11 04:30:32;;;;;;;31.42;20.80;;;;;;;0.03;100.00;101477.19;10265928;28;20043;-74
2021/01/11 04:35:34;;;;;;;31.73;19.88;;;;;;;0.15;100.00;101490.31;10267130;28;20472;-74
2021/01/11 04:40:35;;;;;;;31.38;22.20;;;;;;;0.20;100.00;101487.78;10306429;28;20102;-74
2021/01/11 04:45:36;;;;;;;37.00;21.60;;;;;;;0.18;100.00;101492.06;10306316;28;20434;-74
2021/01/11 04:50:38;;;;;;;31.05;20.35;;;;;;;0.12;100.00;101479.91;10267718;28;20047;-74
2021/01/11 04:55:39;;;;;;;30.20;18.15;;;;;;;0.22;100.00;101497.31;10266518;28;20531;-74
2021/01/11 05:00:42;;;;;;;29.63;19.63;;;;;;;0.35;100.00;101519.03;10266321;29;20051;-74
2021/01/11 05:05:44;;;;;;;26.42;17.23;;;;;;;0.35;100.00;101501.78;10262383;28;20086;-74
2021/01/11 05:10:45;;;;;;;28.02;18.30;;;;;;;0.32;100.00;101487.94;10261858;28;20427;-74
2021/01/11 05:15:46;;;;;;;33.40;19.55;;;;;;;0.21;100.00;101480.03;10263940;29;20086;-74
2021/01/11 05:20:47;;;;;;;30.15;20.88;;;;;;;0.26;100.00;101465.38;10259136;28;20047;-74
2021/01/11 05:25:49;;;;;;;30.85;19.88;;;;;;;0.36;100.00;101477.59;10258825;28;20050;-74
2021/01/11 05:30:51;;;;;;;29.75;18.98;;;;;;;0.34;100.00;101474.13;10290362;28;20043;-74
2021/01/11 05:36:13;;;;;;;24.27;18.48;;;;;;;0.41;100.00;101467.31;10298719;28;20055;-74
2021/01/11 05:41:21;;;;;;;32.20;20.92;;;;;;;0.40;100.00;101455.19;10282506;28;20050;-74
2021/01/11 05:46:27;;;;;;;29.17;19.20;;;;;;;0.54;100.00;101486.44;10258608;29;20042;-74
2021/01/11 05:51:30;;;;;;;29.80;20.92;;;;;;;0.52;100.00;101470.00;10252477;28;20048;-74
2021/01/11 05:57:10;;;;;;;34.40;21.95;;;;;;;0.52;100.00;101467.41;10257285;29;20061;-74
2021/01/11 06:02:11;;;;;;;33.50;24.05;;;;;;;0.52;100.00;101465.69;10096884;29;20044;-73
2021/01/11 06:07:12;;;;;;;35.20;24.92;;;;;;;0.53;100.00;101469.13;10205220;29;20062;-74
2021/01/11 06:12:15;;;;;;;27.08;20.73;;;;;;;0.38;100.00;101434.44;10256655;28;20050;-74
2021/01/11 06:17:17;;;;;;;33.30;22.25;;;;;;;0.40;100.00;101429.28;10257306;29;20043;-74
2021/01/11 06:22:20;;;;;;;27.75;19.50;;;;;;;0.43;100.00;101443.97;10256708;29;20126;-74
2021/01/11 06:27:21;;;;;;;28.98;17.85;;;;;;;0.38;100.00;101447.41;10260925;28;20051;-74
2021/01/11 06:32:23;;;;;;;23.13;16.38;;;;;;;0.50;100.00;101458.75;10297059;28;20038;-74
2021/01/11 06:37:24;;;;;;;19.90;14.10;;;;;;;0.16;100.00;101445.44;10257480;28;20051;-74
2021/01/11 06:42:30;;;;;;;21.92;15.40;;;;;;;0.30;100.00;101458.53;10248222;29;20043;-74
2021/01/11 06:47:31;;;;;;;19.70;13.95;;;;;;;0.38;100.00;101459.47;10233110;29;20465;-74
2021/01/11 06:52:36;;;;;;;22.75;15.88;;;;;;;0.31;100.00;101458.56;10253073;29;20054;-74
2021/01/11 06:57:38;;;;;;;24.67;16.43;;;;;;;0.42;100.00;101463.00;10254859;29;20039;-74
2021/01/11 07:02:43;;;;;;;22.17;14.25;;;;;;;0.37;100.00;101456.03;10215820;29;20044;-74
2021/01/11 07:07:44;;;;;;;;;;;;;;;0.27;100.00;101441.22;10217015;29;20373;-74
2021/01/11 07:12:45;;;;;;;21.92;15.52;;;;;;;0.28;100.00;101422.22;10215844;29;19922;-74
2021/01/11 07:17:48;;;;;;;23.27;16.02;;;;;;;0.33;100.00;101428.34;10215450;29;20389;-74
2021/01/11 07:22:50;;;;;;;25.17;17.27;;;;;;;0.54;100.00;101438.06;10242672;28;20051;-73
2021/01/11 07:27:57;;;;;;;33.17;19.70;;;;;;;0.55;100.00;101441.50;10253352;28;20047;-72
2021/01/11 07:32:58;;;;;;;29.65;20.05;;;;;;;0.62;100.00;101441.59;10251851;28;20069;-73
2021/01/11 07:37:59;;;;;;;32.78;20.50;;;;;;;0.63;100.00;101439.88;10252379;29;20416;-72
2021/01/11 07:43:00;;;;;;;28.45;19.77;;;;;;;0.66;100.00;101439.91;10250582;28;20440;-71
2021/01/11 07:48:01;;;;;;;27.00;18.73;;;;;;;0.94;100.00;101452.25;10249155;29;20043;-72
2021/01/11 07:53:02;;;;;;;27.25;16.92;;;;;;;0.71;100.00;101443.41;10241097;29;20066;-74
2021/01/11 07:58:03;;;;;;;26.35;16.10;;;;;;;0.64;100.00;101420.88;10249112;29;20110;-72
2021/01/11 08:03:05;;;;;;;24.02;15.93;;;;;;;0.57;100.00;101425.13;10251272;29;20047;-72
2021/01/11 08:08:08;;;;;;;24.67;15.88;;;;;;;0.51;100.00;101419.88;10250922;29;20039;-71
2021/01/11 08:13:09;;;;;;;21.42;14.30;;;;;;;0.48;100.00;101404.31;10249024;29;20047;-72
2021/01/11 08:18:11;;;;;;;21.23;15.90;;;;;;;0.48;100.00;101409.50;10251213;29;20054;-72
2021/01/11 08:23:12;;;;;;;22.50;14.73;;;;;;;0.42;100.00;101390.41;10253802;28;20050;-74
2021/01/11 08:28:13;;;;;;;23.73;14.82;;;;;;;0.28;100.00;101375.59;10288191;28;20051;-74
2021/01/11 08:33:14;;;;;;;21.80;13.48;;;;;;;0.27;100.00;101371.25;10269736;28;20055;-73
2021/01/11 08:38:15;;;;;;;21.40;12.75;;;;;;;0.27;100.00;101376.44;10249972;28;20047;-75
2021/01/11 08:43:19;;;;;;;21.52;13.68;;;;;;;0.23;100.00;101368.63;10250818;29;20451;-74
2021/01/11 08:48:25;;;;;;;20.43;12.07;;;;;;;0.12;100.00;101362.47;10245939;29;20047;-73
2021/01/11 08:53:27;;;;;;;24.52;14.23;;;;;;;0.16;100.00;101354.75;10253456;28;20496;-72
2021/01/11 08:58:33;;;;;;;18.90;13.02;;;;;;;0.30;100.00;101360.94;10258857;29;20447;-74
2021/01/11 09:04:02;;;;;;;23.55;14.50;;;;;;;0.15;100.00;101350.44;10258730;29;20520;-72
2021/01/11 09:09:25;;;;;;;18.27;12.30;;;;;;;0.41;100.00;101391.28;10248292;28;20062;-72
2021/01/11 09:14:28;;;;;;;20.08;13.32;;;;;;;0.50;100.00;101417.28;10242159;29;20407;-75
2021/01/11 09:19:31;;;;;;;21.33;13.55;;;;;;;0.26;100.00;101372.09;10258644;28;20508;-75
2021/01/11 09:24:33;;;;;;;22.40;13.93;;;;;;;0.30;100.00;101340.19;10257693;28;20047;-75
2021/01/11 09:29:34;;;;;;;20.83;13.43;;;;;;;0.36;100.00;101348.03;10260189;28;20059;-73
2021/01/11 09:34:35;;;;;;;21.27;12.77;;;;;;;0.38;100.00;101350.63;10256449;28;20059;-75
2021/01/11 09:39:37;;;;;;;21.60;12.95;;;;;;;0.53;100.00;101375.81;10256511;29;20070;-75
2021/01/11 09:44:38;;;;;;;25.10;13.30;;;;;;;0.60;100.00;101386.25;10240265;29;20047;-73
2021/01/11 09:49:43;;;;;;;21.73;13.95;;;;;;;0.57;100.00;101373.28;10255856;29;20191;-73
2021/01/11 09:54:44;;;;;;;19.10;13.38;;;;;;;0.66;100.00;101380.28;10256921;29;20055;-72
2021/01/11 09:59:45;;;;;;;19.33;13.68;;;;;;;0.67;100.00;101369.03;10239692;29;20052;-73
2021/01/11 10:04:48;;;;;;;19.48;13.85;;;;;;;0.82;100.00;101374.34;10255991;28;20050;-73
2021/01/11 10:09:49;;;;;;;20.38;13.43;;;;;;;0.86;100.00;101380.41;10255794;29;20054;-73
2021/01/11 10:14:50;;;;;;;21.10;12.73;;;;;;;0.99;100.00;101392.63;10238178;29;20054;-75
2021/01/11 10:19:51;;;;;;;18.40;12.35;;;;;;;0.96;100.00;101377.91;10254801;29;20126;-74
2021/01/11 10:24:52;;;;;;;16.83;11.93;;;;;;;1.04;100.00;101378.81;10254658;29;20051;-75
2021/01/11 10:29:53;;;;;;;16.15;10.75;;;;;;;1.03;100.00;101356.31;10251596;28;20462;-74
2021/01/11 10:34:55;;;;;;;18.98;12.68;;;;;;;0.94;100.00;101339.84;10253620;28;20492;-75
2021/01/11 10:39:56;;;;;;;17.33;11.80;;;;;;;1.06;100.00;101353.75;10242176;29;20047;-76
2021/01/11 10:44:58;;;;;;;17.20;11.50;;;;;;;1.04;100.00;101347.69;10250190;29;20054;-75
2021/01/11 10:49:59;;;;;;;16.65;11.15;;;;;;;1.10;100.00;101354.63;10235966;29;20511;-74
2021/01/11 10:55:00;;;;;;;16.65;10.57;;;;;;;0.97;100.00;101332.94;10253822;29;20360;-74
2021/01/11 11:00:10;;;;;;;20.70;11.90;;;;;;;1.08;100.00;101338.22;10236393;29;20046;-73
2021/01/11 11:05:11;;;;;;;15.10;10.40;;;;;;;1.16;100.00;101336.53;10253019;29;20039;-74
2021/01/11 11:10:13;;;;;;;19.20;11.57;;;;;;;1.30;100.00;101342.66;10253525;29;20039;-73
2021/01/11 11:15:14;;;;;;;17.33;11.23;;;;;;;1.17;100.00;101311.44;10253732;28;20047;-73
2021/01/11 11:20:16;;;;;;;17.73;10.82;;;;;;;1.11;100.00;101313.13;10253042;28;20059;-73
2021/01/11 11:25:17;;;;;;;15.80;10.65;;;;;;;1.11;100.00;101288.91;10251563;28;20079;-73
2021/01/11 11:30:26;;;;;;;15.75;10.65;;;;;;;1.19;100.00;101307.13;10280603;28;20070;-73
2021/01/11 11:35:27;;;;;;;17.58;10.63;;;;;;;1.21;100.00;101292.44;10318562;28;20069;-73
2021/01/11 11:40:28;;;;;;;18.45;11.18;;;;;;;1.20;100.00;101272.53;10272107;28;20043;-73
2021/01/11 11:45:49;;;;;;;17.13;11.27;;;;;;;1.25;100.00;101268.25;10252543;29;20071;-73
2021/01/11 11:50:51;;;;;;;16.52;12.73;;;;;;;1.41;100.00;101265.72;10253725;28;20071;-73
2021/01/11 11:55:52;;;;;;;15.40;10.82;;;;;;;1.49;100.00;101266.59;10250319;29;20043;-73
2021/01/11 12:00:53;;;;;;;17.25;10.70;;;;;;;1.50;100.00;101246.69;10251811;29;20055;-73
2021/01/11 12:05:55;;;;;;;43.05;20.45;;;;;;;1.42;100.00;101233.66;10250672;29;20388;-73
2021/01/11 12:10:56;;;;;;;51.42;21.60;;;;;;;1.50;100.00;101226.81;10234489;29;20059;-73
2021/01/11 12:15:57;;;;;;;23.23;12.48;;;;;;;1.63;100.00;101216.41;10251451;29;20243;-73
2021/01/11 12:20:58;;;;;;;14.23;9.73;;;;;;;1.64;100.00;101200.84;10250692;29;20134;-74
2021/01/11 12:25:59;;;;;;;20.27;11.73;;;;;;;1.66;100.00;101191.34;10233499;28;20444;-74
2021/01/11 12:31:00;;;;;;;30.70;15.05;;;;;;;1.69;100.00;101177.47;10270070;28;20045;-74
2021/01/11 12:36:02;;;;;;;47.15;26.05;;;;;;;1.72;100.00;101173.16;10247118;29;20066;-74
2021/01/11 12:41:03;;;;;;;16.08;11.82;;;;;;;1.79;100.00;101167.09;10240576;29;20383;-73
2021/01/11 12:46:09;;;;;;;18.13;11.82;;;;;;;1.84;100.00;101154.13;10258166;29;20542;-74
2021/01/11 12:51:15;;;;;;;14.13;10.20;;;;;;;1.89;100.00;101142.84;10258512;29;20550;-74
2021/01/11 12:56:20;;;;;;;15.25;10.75;;;;;;;2.03;100.00;101144.56;10258328;29;20047;-73
2021/01/11 13:01:28;;;;;;;;;;;;;;;2.28;100.00;101154.94;10258776;29;20558;-73
2021/01/11 13:06:35;;;;;;;58.17;24.42;;;;;;;2.32;100.00;101141.94;10257656;28;19977;-72
2021/01/11 13:11:37;;;;;;;22.08;13.82;;;;;;;2.41;100.00;101142.78;10257872;29;20055;-72
2021/01/11 13:16:40;;;;;;;19.45;12.90;;;;;;;2.60;100.00;101141.84;10244159;29;20040;-73
2021/01/11 13:21:41;;;;;;;20.45;12.25;;;;;;;2.38;100.00;101119.38;10257500;28;20070;-72
2021/01/11 13:26:47;;;;;;;16.85;10.98;;;;;;;2.39;100.00;101125.44;10257753;29;20046;-73
2021/01/11 13:31:49;;;;;;;17.83;10.98;;;;;;;2.44;100.00;101132.34;10260327;28;20472;-73
2021/01/11 13:36:51;;;;;;;17.10;11.00;;;;;;;2.58;100.00;101109.81;10238561;29;20063;-73
2021/01/11 13:41:52;;;;;;;13.75;8.50;;;;;;;2.76;100.00;101108.88;10255219;28;20110;-73
2021/01/11 13:46:53;;;;;;;15.45;9.93;;;;;;;2.93;100.00;101122.63;10256578;29;20491;-72
2021/01/11 13:51:55;;;;;;;13.43;9.00;;;;;;;2.94;100.00;101119.16;10255619;29;20103;-73
2021/01/11 13:56:56;;;;;;;13.40;9.63;;;;;;;2.98;100.00;101117.44;10255580;29;20070;-73
2021/01/11 14:01:57;;;;;;;13.98;9.02;;;;;;;2.88;100.00;101084.50;10237526;29;20055;-72
2021/01/11 14:06:58;;;;;;;13.52;9.43;;;;;;;2.81;100.00;101080.22;10253995;29;20550;-73
2021/01/11 14:11:59;;;;;;;12.35;8.70;;;;;;;2.83;100.00;101050.72;10254355;29;20073;-73
2021/01/11 14:17:00;;;;;;;12.93;8.77;;;;;;;2.90;100.00;101064.56;10233327;29;20051;-73
2021/01/11 14:22:02;;;;;;;12.93;9.00;;;;;;;3.05;100.00;101074.88;10245195;29;20055;-73
2021/01/11 14:27:05;;;;;;;12.13;8.73;;;;;;;3.21;100.00;101071.28;10239939;29;20058;-72
2021/01/11 14:32:06;;;;;;;14.35;10.30;;;;;;;3.24;100.00;101080.81;10254640;29;20051;-72
2021/01/11 14:37:07;;;;;;;14.90;9.75;;;;;;;3.45;100.00;101085.88;10246294;29;20090;-73
2021/01/11 14:42:10;;;;;;;15.00;8.20;;;;;;;3.52;100.00;101094.50;10252849;28;20035;-72
2021/01/11 14:47:12;;;;;;;15.45;10.25;;;;;;;3.54;100.00;101096.22;10254140;29;20059;-73
2021/01/11 14:52:13;;;;;;;18.80;12.98;;;;;;;3.56;100.00;101080.59;10253541;28;20066;-72
2021/01/11 14:57:14;;;;;;;14.20;9.75;;;;;;;3.60;100.00;101090.13;10253486;29;20039;-73
2021/01/11 15:02:15;;;;;;;14.85;10.23;;;;;;;3.50;100.00;101081.50;10254341;29;20054;-73
2021/01/11 15:07:17;;;;;;;13.68;10.20;;;;;;;3.54;100.00;101077.13;10253062;29;20499;-72
2021/01/11 15:12:18;;;;;;;16.30;11.38;;;;;;;3.55;100.00;101071.91;10252231;28;20055;-72
2021/01/11 15:17:19;;;;;;;13.07;9.75;;;;;;;3.56;100.00;101064.97;10252556;29;20050;-72
2021/01/11 15:22:21;;;;;;;15.85;11.93;;;;;;;3.63;100.00;101059.69;10252811;28;20050;-71
2021/01/11 15:27:23;;;;;;;19.23;13.15;;;;;;;3.56;100.00;101046.72;10231868;28;20043;-73
2021/01/11 15:32:24;;;;;;;17.63;13.48;;;;;;;3.55;100.00;101038.03;10252061;29;20067;-72
2021/01/11 15:37:25;;;;;;;14.23;10.00;;;;;;;3.61;100.00;101021.47;10244577;28;20082;-74
2021/01/11 15:42:27;;;;;;;17.08;12.93;;;;;;;3.49;100.00;100999.03;10253402;29;20047;-73
2021/01/11 15:47:28;;;;;;;17.52;11.27;;;;;;;3.39;100.00;100993.03;10254093;29;20400;-73
2021/01/11 15:52:29;;;;;;;12.00;7.75;;;;;;;3.35;100.00;100986.13;10236696;29;20049;-73
2021/01/11 15:57:30;;;;;;;14.80;10.77;;;;;;;3.50;100.00;100992.94;10254572;29;20078;-73
2021/01/11 16:02:35;;;;;;;29.42;26.35;;;;;;;3.35;100.00;100964.41;10252702;29;20051;-73
2021/01/11 16:07:36;;;;;;;17.50;14.30;;;;;;;3.42;100.00;100979.13;10252253;28;20066;-73
2021/01/11 16:12:38;;;;;;;17.52;12.20;;;;;;;3.38;100.00;100964.41;10253031;29;20050;-73
2021/01/11 16:17:41;;;;;;;52.38;40.78;;;;;;;3.62;100.00;100985.00;10253671;29;20043;-73
2021/01/11 16:22:43;;;;;;;15.43;11.00;;;;;;;3.58;100.00;100985.94;10251557;29;20047;-74
2021/01/11 16:27:44;;;;;;;15.00;11.07;;;;;;;3.55;100.00;100969.44;10259154;28;20058;-74
2021/01/11 16:32:45;;;;;;;10.68;7.43;;;;;;;3.62;100.00;100973.72;10292960;28;20050;-73
2021/01/11 16:37:46;;;;;;;14.38;9.38;;;;;;;3.74;100.00;100965.78;10258936;28;20071;-73
2021/01/11 16:42:47;;;;;;;11.43;6.88;;;;;;;3.78;100.00;100954.44;10252861;29;20483;-73
2021/01/11 16:47:49;;;;;;;16.52;14.98;;;;;;;3.97;100.00;100961.19;10252216;29;20499;-73
2021/01/11 16:52:51;;;;;;;14.57;11.25;;;;;;;4.01;100.00;100943.78;10252059;29;20051;-73
2021/01/11 16:57:53;;;;;;;11.85;8.82;;;;;;;3.94;100.00;100935.13;10251940;29;20043;-73
2021/01/11 17:02:56;;;;;;;9.55;6.80;;;;;;;4.09;100.00;100947.16;10250437;29;20047;-71
2021/01/11 17:07:57;;;;;;;8.38;6.38;;;;;;;4.04;100.00;100931.53;10238214;29;20123;-73
2021/01/11 17:12:58;;;;;;;18.35;13.45;;;;;;;3.98;100.00;100909.91;10253096;28;20094;-73
2021/01/11 17:17:59;;;;;;;82.55;46.13;;;;;;;4.04;100.00;100920.25;10241871;29;20102;-73
2021/01/11 17:23:01;;;;;;;10.07;7.57;;;;;;;4.07;100.00;100913.28;10258522;29;20472;-74
2021/01/11 17:28:03;;;;;;;8.25;6.50;;;;;;;4.09;100.00;100913.25;10268206;28;20055;-74
2021/01/11 17:33:04;;;;;;;8.80;6.18;;;;;;;4.17;100.00;100907.06;10275234;28;20684;-73
2021/01/11 17:38:05;;;;;;;12.25;8.27;;;;;;;4.11;100.00;100878.44;10258020;29;20063;-73
2021/01/11 17:43:07;;;;;;;11.80;8.00;;;;;;;4.20;100.00;100896.56;10241055;29;20090;-73
2021/01/11 17:48:08;;;;;;;10.85;7.95;;;;;;;4.18;100.00;100877.47;10257705;29;20047;-74
2021/01/11 17:53:09;;;;;;;11.45;7.70;;;;;;;4.28;100.00;100878.22;10256295;29;20396;-72
2021/01/11 17:58:10;;;;;;;12.10;8.45;;;;;;;4.25;100.00;100864.38;10256652;29;20039;-74
2021/01/11 18:03:11;;;;;;;13.90;8.32;;;;;;;4.12;100.00;100848.88;10256796;28;20047;-75
2021/01/11 18:08:13;;;;;;;9.48;8.15;;;;;;;4.09;100.00;100842.88;10256982;29;20102;-74
2021/01/11 18:13:15;;;;;;;10.63;8.02;;;;;;;4.15;100.00;100851.47;10243375;29;20050;-75
2021/01/11 18:18:16;;;;;;;11.70;9.02;;;;;;;4.05;100.00;100825.53;10253805;29;20039;-75
2021/01/11 18:23:18;;;;;;;10.68;8.65;;;;;;;4.07;100.00;100816.81;10234834;29;20082;-74
2021/01/11 18:28:19;;;;;;;16.13;9.30;;;;;;;4.46;100.00;100838.81;10244389;28;20051;-75
2021/01/11 18:33:21;;;;;;;13.68;9.70;;;;;;;4.11;100.00;100817.63;10224079;28;20083;-74
2021/01/11 18:38:22;;;;;;;15.85;12.30;;;;;;;4.27;100.00;100831.31;10230526;29;20059;-74
2021/01/11 18:43:23;;;;;;;19.55;13.65;;;;;;;4.44;100.00;100824.94;10254125;29;20047;-74
2021/01/11 18:48:24;;;;;;;14.23;10.98;;;;;;;4.48;100.00;100816.19;10254130;29;20046;-74
2021/01/11 18:53:26;;;;;;;13.60;10.65;;;;;;;4.50;100.00;100821.38;10254338;29;20055;-74
2021/01/11 18:58:27;;;;;;;14.43;10.05;;;;;;;4.41;100.00;100814.56;10253086;28;20448;-74
2021/01/11 19:03:28;;;;;;;14.52;10.98;;;;;;;4.46;100.00;100824.91;10253349;29;20055;-74
2021/01/11 19:08:29;;;;;;;13.02;9.90;;;;;;;4.46;100.00;100802.28;10253067;29;20055;-74
2021/01/11 19:13:30;;;;;;;13.65;10.57;;;;;;;4.42;100.00;100798.03;10252966;29;20043;-74
2021/01/11 19:18:32;;;;;;;13.23;10.05;;;;;;;4.41;100.00;100798.91;10253164;29;20043;-74
2021/01/11 19:23:34;;;;;;;13.13;9.50;;;;;;;4.31;100.00;100786.03;10247904;28;20051;-77
2021/01/11 19:28:35;;;;;;;12.70;9.80;;;;;;;4.34;100.00;100793.81;10248929;28;20058;-75
2021/01/11 19:33:36;;;;;;;13.95;10.60;;;;;;;4.41;100.00;100765.00;10250623;28;20055;-75
2021/01/11 19:38:38;;;;;;;16.25;11.18;;;;;;;4.52;100.00;100767.41;10237475;28;20487;-75
2021/01/11 19:43:39;;;;;;;15.98;10.75;;;;;;;4.56;100.00;100756.06;10249470;29;20047;-74
2021/01/11 19:48:40;;;;;;;15.23;11.07;;;;;;;4.53;100.00;100748.25;10245905;29;20054;-75
2021/01/11 19:53:41;;;;;;;12.63;10.05;;;;;;;4.47;100.00;100741.41;10241998;28;20058;-74
2021/01/11 19:58:44;;;;;;;18.60;12.65;;;;;;;4.58;100.00;100733.41;10252127;29;20047;-75
2021/01/11 20:03:48;;;;;;;14.55;11.32;;;;;;;4.46;100.00;100725.78;10250974;29;20513;-75
2021/01/11 20:08:50;;;;;;;16.02;12.30;;;;;;;4.49;100.00;100718.78;10247240;29;20058;-75
2021/01/11 20:13:51;;;;;;;15.15;11.55;;;;;;;4.54;100.00;100714.31;10230644;29;20051;-74
2021/01/11 20:18:52;;;;;;;16.63;11.82;;;;;;;4.55;100.00;100717.81;10249652;29;20385;-75
2021/01/11 20:23:53;;;;;;;17.58;12.80;;;;;;;4.75;100.00;100733.09;10247626;28;20399;-74
2021/01/11 20:28:55;;;;;;;16.20;13.07;;;;;;;4.68;100.00;100727.16;10249362;28;20051;-74
2021/01/11 20:33:58;;;;;;;15.82;12.73;;;;;;;4.58;100.00;100729.06;10178584;23;20626;-74
2021/01/11 20:44:30;;;;;;;17.58;12.88;;;;;;;4.60;100.00;100696.88;10441830;23;20139;-73
2021/01/11 20:49:31;;;;;;;18.75;14.55;;;;;;;4.56;100.00;100681.25;10177238;29;20057;-74
2021/01/11 20:54:32;;;;;;;18.98;15.10;;;;;;;4.63;100.00;100681.13;10181042;29;20545;-73
2021/01/11 20:59:35;;;;;;;19.83;14.98;;;;;;;4.56;100.00;100677.78;10178995;29;20036;-74
2021/01/11 21:04:36;;;;;;;21.05;16.02;;;;;;;4.52;100.00;100683.94;10180534;29;20044;-73
2021/01/11 21:09:37;;;;;;;18.42;14.73;;;;;;;4.54;100.00;100696.06;10180462;29;20060;-74
2021/01/11 21:14:38;;;;;;;20.23;15.05;;;;;;;4.45;100.00;100688.41;10180781;29;20051;-74
2021/01/11 21:19:39;;;;;;;18.83;15.05;;;;;;;4.42;100.00;100688.47;10163575;29;20044;-73
2021/01/11 21:24:42;;;;;;;20.52;15.52;;;;;;;4.47;100.00;100691.84;10179509;29;20048;-74
2021/01/11 21:29:43;;;;;;;18.15;14.70;;;;;;;4.42;100.00;100671.97;10163919;29;20041;-73
2021/01/11 21:34:44;;;;;;;19.80;15.00;;;;;;;4.44;100.00;100676.25;10140041;29;20040;-73
2021/01/11 21:39:45;;;;;;;18.90;15.07;;;;;;;4.50;100.00;100675.28;10177740;29;20051;-74
2021/01/11 21:44:46;;;;;;;20.27;15.73;;;;;;;4.49;100.00;100668.34;10191630;29;20448;-73
2021/01/11 21:49:47;;;;;;;20.98;16.10;;;;;;;4.44;100.00;100649.31;10179012;29;20056;-73
2021/01/11 21:54:48;;;;;;;22.42;16.38;;;;;;;4.50;100.00;100644.84;10161381;29;20076;-74
2021/01/11 21:59:49;;;;;;;18.90;14.98;;;;;;;4.53;100.00;100631.72;10178145;29;20044;-73
2021/01/11 22:04:50;;;;;;;23.08;15.02;;;;;;;4.59;100.00;100630.78;10179035;29;20044;-73
2021/01/11 22:09:51;;;;;;;24.20;16.50;;;;;;;4.45;100.00;100614.50;10165919;29;20052;-73
2021/01/11 22:14:54;;;;;;;21.80;17.25;;;;;;;4.29;100.00;100598.28;10175352;29;20048;-73
2021/01/11 22:19:55;;;;;;;28.08;17.48;;;;;;;4.28;100.00;100590.50;10178460;29;20036;-74
2021/01/11 22:24:56;;;;;;;24.38;17.33;;;;;;;4.34;100.00;100585.19;10177568;29;20055;-73
2021/01/11 22:29:57;;;;;;;23.48;16.55;;;;;;;4.36;100.00;100563.38;10177629;29;20052;-73
2021/01/11 22:34:58;;;;;;;20.65;16.73;;;;;;;4.49;100.00;100584.88;10177927;29;20051;-74
2021/01/11 22:39:59;;;;;;;21.63;16.83;;;;;;;4.48;100.00;100572.72;10177137;29;20123;-74
2021/01/11 22:45:00;;;;;;;19.58;16.00;;;;;;;4.47;100.00;100579.69;10190699;29;20063;-74